West Fork, Arkansas
Current Conditions -  °F | °C
As of 3:27 AM on Wednesday 22 Oct 2014 (Local Time) from KFYV Reporting Station
Haze Haze  
Wind Chill: 46°   Ceiling: Unl
Heat Index: 46°   Visibility: 4mi
Dew Point: 46°   Wind: 0mph
Humidity: 100%   Direction: NA
Pressure: 30.14"   Gusts: NA
Location:  35.92°N, 94.19°W
Report Text: KFYV 220827Z 00000KT 4SM BR SCT002 08/08 A3014 RMK AO2 T00780078
Loading
Personal Weather Stations






























Interactive Weather Map
Tropical Storm Tracking
New forecast layout! Learn more

10-Day Weather Forecast

Advertisements
Track Severe Weather on mobile